PWSweather.com
Personal Weather Stations
Station Observations
SWHWX01
St AppolinardFR 38160

St AppolinardFR 38160

Lat: 45.191, Lon: 5.268

Elevation: 1460

Station Type: Davis Vantage Pro2 Plus

www.sweetwebhome.com/?show=wxindex

High Low Average
Temperature 61.7°F16.5°C 53.7°F12.1°C 57.8°F14.3°C
Dew Point 53.6°F12.0°C 50.7°F10.4°C 52.3°F11.3°C
Winds 8.2 mph 13.2 kmh Calm Calm 2.0 mph WSW3.2 kmh WSW
Wind Gusts 10.0 mph16.1 kmh -- 3.0 mph4.8 kmh
Humidity 94% 69% 82%
Pressure 30.12 in1020.0 mb 29.95 in1014.2 mb -
Precipitation 0.01 in0.3 mm - -
Hour Temp Dew Point Humidity Winds Wind Gusts Pressure Precip Precip Rate Daily Precip Total
12:00 AM 54.6°F12.6°C 52.6°F11.4°C 93% 2.0 mph NW3.2 kmh NW 3.0 mph4.8 kmh 29.95 in1014.2 mb - 0.01 in0.3 mm 0.01 in0.3 mm
12:30 AM 54.8°F12.7°C 53.1°F11.7°C 94% Calm Calm -- 29.95 in1014.2 mb - 0.00 in0.0 mm 0.01 in0.3 mm
01:00 AM 54.7°F12.6°C 53.0°F11.7°C 94% 1.1 mph NW1.8 kmh NW 2.0 mph3.2 kmh 29.95 in1014.2 mb - 0.00 in0.0 mm 0.01 in0.3 mm
01:30 AM 54.5°F12.5°C 52.8°F11.6°C 94% 1.0 mph NW1.6 kmh NW 2.0 mph3.2 kmh 29.95 in1014.2 mb - 0.00 in0.0 mm 0.01 in0.3 mm
02:00 AM 54.6°F12.6°C 52.9°F11.6°C 94% 1.3 mph NW2.1 kmh NW 2.0 mph3.2 kmh 29.96 in1014.6 mb - 0.00 in0.0 mm 0.01 in0.3 mm
02:30 AM 54.6°F12.6°C 52.9°F11.6°C 94% Calm Calm -- 29.96 in1014.6 mb - 0.00 in0.0 mm 0.01 in0.3 mm
03:00 AM 54.5°F12.5°C 52.5°F11.4°C 93% 1.8 mph NW2.9 kmh NW 3.0 mph4.8 kmh 29.96 in1014.6 mb - 0.00 in0.0 mm 0.01 in0.3 mm
03:30 AM 54.7°F12.6°C 52.1°F11.2°C 91% Calm Calm -- 29.96 in1014.6 mb - 0.00 in0.0 mm 0.01 in0.3 mm
04:00 AM 54.3°F12.4°C 52.0°F11.1°C 92% 0.4 mph NW0.6 kmh NW 1.0 mph1.6 kmh 29.96 in1014.6 mb - 0.00 in0.0 mm 0.01 in0.3 mm
04:30 AM 53.7°F12.1°C 51.7°F10.9°C 93% 1.6 mph NW2.6 kmh NW 3.0 mph4.8 kmh 29.97 in1014.9 mb - 0.00 in0.0 mm 0.01 in0.3 mm
05:00 AM 53.9°F12.2°C 51.9°F11.1°C 93% Calm Calm -- 29.97 in1014.9 mb - 0.00 in0.0 mm 0.01 in0.3 mm
05:30 AM 54.6°F12.6°C 52.6°F11.4°C 93% 0.6 mph NW1.0 kmh NW 2.0 mph3.2 kmh 29.98 in1015.2 mb - 0.00 in0.0 mm 0.01 in0.3 mm
06:00 AM 55.0°F12.8°C 52.7°F11.5°C 92% Calm Calm 1.0 mph1.6 kmh 29.98 in1015.2 mb - 0.00 in0.0 mm 0.01 in0.3 mm
06:30 AM 55.5°F13.1°C 52.9°F11.6°C 91% Calm Calm -- 29.99 in1015.6 mb - 0.00 in0.0 mm 0.01 in0.3 mm
07:00 AM 55.6°F13.1°C 52.1°F11.2°C 88% 0.1 mph N0.2 kmh N 1.0 mph1.6 kmh 29.99 in1015.6 mb - 0.00 in0.0 mm 0.01 in0.3 mm
07:30 AM 56.1°F13.4°C 51.3°F10.7°C 84% 0.1 mph N0.2 kmh N 1.0 mph1.6 kmh 30.00 in1015.9 mb - 0.00 in0.0 mm 0.01 in0.3 mm
08:00 AM 56.5°F13.6°C 51.1°F10.6°C 82% Calm Calm -- 30.01 in1016.3 mb - 0.00 in0.0 mm 0.01 in0.3 mm
08:30 AM 57.2°F14.0°C 51.8°F11.0°C 82% 2.6 mph NNW4.2 kmh NNW 3.0 mph4.8 kmh 30.02 in1016.6 mb - 0.00 in0.0 mm 0.01 in0.3 mm
09:00 AM 57.6°F14.2°C 52.1°F11.2°C 82% 0.6 mph NNW1.0 kmh NNW 2.0 mph3.2 kmh 30.02 in1016.6 mb - 0.00 in0.0 mm 0.01 in0.3 mm
09:30 AM 59.6°F15.3°C 51.7°F10.9°C 75% 1.9 mph N3.1 kmh N 3.0 mph4.8 kmh 30.02 in1016.6 mb - 0.00 in0.0 mm 0.01 in0.3 mm
10:00 AM 59.5°F15.3°C 52.3°F11.3°C 77% 0.1 mph N0.2 kmh N 1.0 mph1.6 kmh 30.02 in1016.6 mb - 0.00 in0.0 mm 0.01 in0.3 mm
10:30 AM 59.1°F15.1°C 51.2°F10.7°C 75% 5.1 mph NNW8.2 kmh NNW 7.0 mph11.3 kmh 30.03 in1016.9 mb - 0.00 in0.0 mm 0.01 in0.3 mm
11:00 AM 58.9°F14.9°C 50.7°F10.4°C 74% 3.1 mph NNW5.0 kmh NNW 6.0 mph9.7 kmh 30.04 in1017.3 mb - 0.00 in0.0 mm 0.01 in0.3 mm
11:30 AM 59.8°F15.4°C 51.9°F11.1°C 75% 1.4 mph NW2.3 kmh NW 5.0 mph8.0 kmh 30.04 in1017.3 mb - 0.00 in0.0 mm 0.01 in0.3 mm
12:00 PM 60.7°F15.9°C 51.6°F10.9°C 72% 0.7 mph NW1.1 kmh NW 3.0 mph4.8 kmh 30.04 in1017.3 mb - 0.00 in0.0 mm 0.01 in0.3 mm
12:30 PM 61.2°F16.2°C 50.9°F10.5°C 69% 2.2 mph NNW3.5 kmh NNW 2.0 mph3.2 kmh 30.04 in1017.3 mb - 0.00 in0.0 mm 0.01 in0.3 mm
01:00 PM 61.3°F16.3°C 51.8°F11.0°C 71% 2.2 mph NNW3.5 kmh NNW 4.0 mph6.4 kmh 30.05 in1017.6 mb - 0.00 in0.0 mm 0.01 in0.3 mm
01:30 PM 61.7°F16.5°C 53.0°F11.7°C 73% 0.7 mph NNW1.1 kmh NNW 4.0 mph6.4 kmh 30.06 in1017.9 mb - 0.00 in0.0 mm 0.01 in0.3 mm
02:00 PM 61.2°F16.2°C 51.7°F10.9°C 71% 0.6 mph NNW1.0 kmh NNW 2.0 mph3.2 kmh 30.06 in1017.9 mb - 0.00 in0.0 mm 0.01 in0.3 mm
02:30 PM 60.6°F15.9°C 51.9°F11.1°C 73% 2.0 mph N3.2 kmh N 5.0 mph8.0 kmh 30.07 in1018.3 mb - 0.00 in0.0 mm 0.01 in0.3 mm
03:00 PM 61.1°F16.2°C 52.0°F11.1°C 72% 6.5 mph NNW10.5 kmh NNW 10.0 mph16.1 kmh 30.07 in1018.3 mb - 0.00 in0.0 mm 0.01 in0.3 mm
03:30 PM 61.6°F16.4°C 51.7°F10.9°C 70% 8.2 mph NW13.2 kmh NW 10.0 mph16.1 kmh 30.07 in1018.3 mb - 0.00 in0.0 mm 0.01 in0.3 mm
04:00 PM 59.5°F15.3°C 52.2°F11.2°C 77% 6.4 mph NNW10.3 kmh NNW 10.0 mph16.1 kmh 30.08 in1018.6 mb - 0.00 in0.0 mm 0.01 in0.3 mm
04:30 PM 58.2°F14.6°C 52.4°F11.3°C 81% 5.5 mph N8.9 kmh N 5.0 mph8.0 kmh 30.09 in1019.0 mb - 0.00 in0.0 mm 0.01 in0.3 mm
05:00 PM 58.5°F14.7°C 52.7°F11.5°C 81% 3.2 mph NNW5.1 kmh NNW 7.0 mph11.3 kmh 30.09 in1019.0 mb - 0.00 in0.0 mm 0.01 in0.3 mm
05:30 PM 59.2°F15.1°C 53.4°F11.9°C 81% 5.1 mph N8.2 kmh N 8.0 mph12.9 kmh 30.08 in1018.6 mb - 0.00 in0.0 mm 0.01 in0.3 mm
06:00 PM 59.9°F15.5°C 53.0°F11.7°C 78% 5.1 mph N8.2 kmh N 9.0 mph14.5 kmh 30.09 in1019.0 mb - 0.00 in0.0 mm 0.01 in0.3 mm
06:30 PM 59.5°F15.3°C 53.3°F11.8°C 80% 4.9 mph NNW7.9 kmh NNW 7.0 mph11.3 kmh 30.09 in1019.0 mb - 0.00 in0.0 mm 0.01 in0.3 mm
07:00 PM 59.8°F15.4°C 53.6°F12.0°C 80% 1.4 mph NE2.3 kmh NE 3.0 mph4.8 kmh 30.10 in1019.3 mb - 0.00 in0.0 mm 0.01 in0.3 mm
07:30 PM 59.1°F15.1°C 52.6°F11.4°C 79% 1.2 mph N1.9 kmh N 2.0 mph3.2 kmh 30.10 in1019.3 mb - 0.00 in0.0 mm 0.01 in0.3 mm
08:00 PM 58.9°F14.9°C 53.1°F11.7°C 81% 0.2 mph N0.3 kmh N 2.0 mph3.2 kmh 30.10 in1019.3 mb - 0.00 in0.0 mm 0.01 in0.3 mm
08:30 PM 58.1°F14.5°C 52.6°F11.4°C 82% 0.5 mph N0.8 kmh N 2.0 mph3.2 kmh 30.11 in1019.6 mb - 0.00 in0.0 mm 0.01 in0.3 mm
09:00 PM 57.7°F14.3°C 52.9°F11.6°C 84% Calm Calm 1.0 mph1.6 kmh 30.11 in1019.6 mb - 0.00 in0.0 mm 0.01 in0.3 mm
09:30 PM 57.2°F14.0°C 52.1°F11.2°C 83% 0.3 mph NE0.5 kmh NE 2.0 mph3.2 kmh 30.12 in1020.0 mb - 0.00 in0.0 mm 0.01 in0.3 mm
10:00 PM 57.1°F13.9°C 52.6°F11.4°C 85% Calm Calm 2.0 mph3.2 kmh 30.12 in1020.0 mb - 0.00 in0.0 mm 0.01 in0.3 mm
10:30 PM 57.7°F14.3°C 52.2°F11.2°C 82% 2.8 mph N4.5 kmh N 5.0 mph8.0 kmh 30.12 in1020.0 mb - 0.00 in0.0 mm 0.01 in0.3 mm
11:00 PM 57.5°F14.2°C 52.0°F11.1°C 82% 0.3 mph N0.5 kmh N 1.0 mph1.6 kmh 30.12 in1020.0 mb - 0.00 in0.0 mm 0.01 in0.3 mm
11:30 PM 57.3°F14.1°C 52.2°F11.2°C 83% Calm Calm -- 30.12 in1020.0 mb - 0.00 in0.0 mm 0.01 in0.3 mm